Time;durP1;ratioP1;P1;durP2;ratioP2;P2;SDS_P1;SDS_P2;PMS_P1;PMS_P2;Temp;Humidity;BMP_temperature;BMP_pressure;BME280_temperature;BME280_humidity;BME280_pressure;Samples;Min_cycle;Max_cycle;Signal;HPM_P1;HPM_P2
2023/03/28 00:01:44;;;;;;;5.20;2.90;;;4.30;99.90;;;;;;4953908;28;20563;-93
2023/03/28 00:04:10;;;;;;;7.03;3.95;;;4.20;99.90;;;;;;4954655;28;20031;-93
2023/03/28 00:06:37;;;;;;;8.82;3.78;;;4.50;99.90;;;;;;4954705;28;20434;-93
2023/03/28 00:09:04;;;;;;;11.40;4.20;;;4.50;99.90;;;;;;4943927;28;20114;-94
2023/03/28 00:11:30;;;;;;;9.02;3.92;;;4.30;99.90;;;;;;4936296;29;20035;-94
2023/03/28 00:13:59;;;;;;;6.80;3.03;;;4.20;99.90;;;;;;4935199;29;20067;-93
2023/03/28 00:16:30;;;;;;;5.15;2.40;;;4.10;99.90;;;;;;4935159;29;20032;-93
2023/03/28 00:18:59;;;;;;;6.80;2.88;;;4.10;99.90;;;;;;4935708;29;20032;-93
2023/03/28 00:21:40;;;;;;;9.15;2.30;;;4.10;99.90;;;;;;4946217;29;20031;-93
2023/03/28 00:24:12;;;;;;;6.25;2.72;;;4.10;99.90;;;;;;4954401;28;20503;-93
2023/03/28 00:26:38;;;;;;;6.90;3.65;;;3.90;99.90;;;;;;4954018;28;20037;-94
2023/03/28 00:29:07;;;;;;;7.68;4.10;;;4.10;99.90;;;;;;4953878;28;20050;-94
2023/03/28 00:31:37;;;;;;;8.00;4.45;;;3.90;99.90;;;;;;4954580;28;20100;-94
2023/03/28 00:34:03;;;;;;;9.43;3.88;;;4.10;99.90;;;;;;4954080;28;20170;-94
2023/03/28 00:36:31;;;;;;;7.88;4.07;;;3.70;99.90;;;;;;4951797;29;20077;-93
2023/03/28 00:39:09;;;;;;;8.55;4.50;;;3.70;99.90;;;;;;4953447;28;20035;-94
2023/03/28 00:41:41;;;;;;;6.03;3.60;;;3.70;99.90;;;;;;4951265;28;20046;-94
2023/03/28 00:44:42;;;;;;;5.22;4.18;;;3.70;99.90;;;;;;4953296;28;20110;-93
2023/03/28 00:47:24;;;;;;;12.07;4.75;;;3.70;99.90;;;;;;4943762;28;20136;-94
2023/03/28 00:49:54;;;;;;;9.40;4.70;;;3.80;99.90;;;;;;4953396;28;20497;-93
2023/03/28 00:52:23;;;;;;;6.38;4.07;;;3.90;99.90;;;;;;4952792;28;20059;-94
2023/03/28 00:54:51;;;;;;;6.70;4.78;;;3.70;99.90;;;;;;4952693;29;20067;-94
2023/03/28 00:57:17;;;;;;;11.32;5.10;;;3.70;99.90;;;;;;4953423;28;20118;-93
2023/03/28 00:59:43;;;;;;;9.10;4.50;;;3.60;99.90;;;;;;4953553;28;20035;-93
2023/03/28 01:02:10;;;;;;;6.50;4.35;;;3.60;99.90;;;;;;4952514;28;20050;-94
2023/03/28 01:05:02;;;;;;;6.00;4.00;;;3.80;99.90;;;;;;4953138;28;20035;-93
2023/03/28 01:07:34;;;;;;;5.00;3.35;;;3.60;99.90;;;;;;4957036;28;20074;-94
2023/03/28 01:10:02;;;;;;;7.03;3.92;;;4.00;99.90;;;;;;4952898;28;20089;-93
2023/03/28 01:12:28;;;;;;;7.10;4.28;;;3.70;99.90;;;;;;4953705;29;20027;-94
2023/03/28 01:14:55;;;;;;;9.48;5.00;;;3.50;99.90;;;;;;4953164;28;20050;-93
2023/03/28 01:17:20;;;;;;;10.30;4.95;;;3.40;99.90;;;;;;4953491;28;20031;-93
2023/03/28 01:20:02;;;;;;;7.43;4.82;;;3.80;99.90;;;;;;4952912;28;20031;-94
2023/03/28 01:23:09;;;;;;;7.38;4.63;;;3.30;99.90;;;;;;4952442;29;20051;-94
2023/03/28 01:25:43;;;;;;;7.35;4.82;;;3.30;99.90;;;;;;5051360;28;20442;-94
2023/03/28 01:29:02;;;;;;;8.57;4.50;;;3.40;99.90;;;;;;5050938;28;20052;-94
2023/03/28 01:31:59;;;;;;;8.52;4.85;;;3.30;99.90;;;;;;5012210;28;20026;-94
2023/03/28 01:34:43;;;;;;;9.18;5.18;;;3.40;99.90;;;;;;5010643;28;20064;-94
2023/03/28 01:37:15;;;;;;;10.65;4.85;;;3.10;99.90;;;;;;5011786;28;20050;-93
2023/03/28 01:39:46;;;;;;;7.25;4.13;;;3.20;99.90;;;;;;5011461;28;20049;-93
2023/03/28 01:42:28;;;;;;;9.95;4.68;;;3.40;99.90;;;;;;5011662;28;20103;-94
2023/03/28 01:45:16;;;;;;;7.95;4.50;;;3.30;99.90;;;;;;5010796;28;20055;-94
2023/03/28 01:47:50;;;;;;;9.02;4.72;;;3.20;99.90;;;;;;5011696;28;20633;-93
2023/03/28 01:50:18;;;;;;;8.23;4.70;;;3.40;99.90;;;;;;4996740;28;20048;-93
2023/03/28 01:53:21;;;;;;;8.40;4.57;;;3.10;99.90;;;;;;5011262;28;20111;-94
2023/03/28 01:55:50;;;;;;;9.90;5.20;;;3.10;99.90;;;;;;4953160;29;20508;-94
2023/03/28 01:58:31;;;;;;;9.90;4.68;;;3.10;99.90;;;;;;4953519;29;20173;-94
2023/03/28 02:01:12;;;;;;;10.60;4.63;;;3.10;99.90;;;;;;4906626;29;20551;-93
2023/03/28 02:03:43;;;;;;;9.27;5.45;;;3.10;99.90;;;;;;4837259;29;20127;-94
2023/03/28 02:06:10;;;;;;;8.10;4.55;;;3.10;99.90;;;;;;4865354;29;20041;-94
2023/03/28 02:08:39;;;;;;;9.18;4.60;;;3.00;99.90;;;;;;4875064;28;20192;-94
2023/03/28 02:11:05;;;;;;;11.48;5.10;;;3.30;99.90;;;;;;4874477;29;20033;-94
2023/03/28 02:14:06;;;;;;;8.13;5.00;;;3.00;99.90;;;;;;4874642;29;20153;-94
2023/03/28 02:16:37;;;;;;;7.68;5.00;;;3.40;99.90;;;;;;4875703;28;20041;-94
2023/03/28 02:19:05;;;;;;;8.32;4.70;;;3.10;99.90;;;;;;4865282;29;20120;-93
2023/03/28 02:21:55;;;;;;;7.88;5.15;;;3.30;99.90;;;;;;4874816;29;20064;-93
2023/03/28 02:24:21;;;;;;;9.05;5.00;;;3.00;99.90;;;;;;4874502;28;20092;-94
2023/03/28 02:26:46;;;;;;;7.95;5.05;;;3.00;99.90;;;;;;4874871;29;20049;-94
2023/03/28 02:29:14;;;;;;;9.68;5.43;;;3.20;99.90;;;;;;4875050;29;20041;-94
2023/03/28 02:31:40;;;;;;;7.57;4.20;;;3.30;99.90;;;;;;4899902;29;20071;-93
2023/03/28 02:34:08;;;;;;;9.45;4.95;;;2.80;99.90;;;;;;4922724;29;20559;-93
2023/03/28 02:36:42;;;;;;;9.05;4.78;;;2.80;99.90;;;;;;4933057;28;20106;-94
2023/03/28 02:39:27;;;;;;;11.85;5.60;;;2.90;99.90;;;;;;4933110;29;20091;-94
2023/03/28 02:42:05;;;;;;;9.73;5.55;;;3.00;99.90;;;;;;4933062;28;20093;-93
2023/03/28 02:44:45;;;;;;;11.55;5.15;;;2.90;99.90;;;;;;4932776;28;20055;-93
2023/03/28 02:47:14;;;;;;;8.30;5.32;;;2.90;99.90;;;;;;4932993;28;20061;-94
2023/03/28 02:50:05;;;;;;;8.52;5.70;;;2.60;99.90;;;;;;4931968;29;20039;-93
2023/03/28 02:52:53;;;;;;;11.45;6.15;;;2.70;99.90;;;;;;4932477;29;20078;-94
2023/03/28 02:55:37;;;;;;;11.30;5.85;;;2.80;99.90;;;;;;4932488;29;20043;-94
2023/03/28 02:58:09;;;;;;;9.57;6.28;;;2.70;99.90;;;;;;4933183;29;20035;-94
2023/03/28 03:00:36;;;;;;;8.98;5.82;;;2.80;99.90;;;;;;4933561;29;20441;-94
2023/03/28 03:03:05;;;;;;;8.10;5.32;;;2.90;99.90;;;;;;4932827;29;20036;-93
2023/03/28 03:05:30;;;;;;;9.80;5.50;;;2.70;99.90;;;;;;4933010;29;20042;-94
2023/03/28 03:07:56;;;;;;;9.60;6.00;;;3.00;99.90;;;;;;4933015;29;20103;-94
2023/03/28 03:10:22;;;;;;;9.10;5.50;;;3.20;99.90;;;;;;4932901;29;20511;-94
2023/03/28 03:12:47;;;;;;;10.45;5.82;;;3.20;99.90;;;;;;4925754;29;20103;-93
2023/03/28 03:15:15;;;;;;;9.23;5.63;;;2.80;99.90;;;;;;4913939;29;20047;-89
2023/03/28 03:17:42;;;;;;;10.25;6.32;;;2.80;99.90;;;;;;4917265;29;20028;-94
2023/03/28 03:20:09;;;;;;;10.98;6.70;;;3.10;99.90;;;;;;4917221;29;20491;-94
2023/03/28 03:22:35;;;;;;;11.20;6.75;;;2.80;99.90;;;;;;4916033;29;20054;-94
2023/03/28 03:25:05;;;;;;;10.50;6.00;;;2.80;99.90;;;;;;4917053;28;20020;-94
2023/03/28 03:27:32;;;;;;;10.13;6.28;;;3.00;99.90;;;;;;4949070;28;20041;-94
2023/03/28 03:29:58;;;;;;;9.40;5.18;;;2.80;99.90;;;;;;4954190;28;20023;-94
2023/03/28 03:32:24;;;;;;;9.68;5.47;;;2.70;99.90;;;;;;4955494;29;20039;-93
2023/03/28 03:34:49;;;;;;;11.32;6.35;;;2.70;99.90;;;;;;4955127;28;20043;-94
2023/03/28 03:37:16;;;;;;;11.13;5.95;;;2.60;99.90;;;;;;4954608;29;20042;-94
2023/03/28 03:39:43;;;;;;;7.55;5.40;;;2.50;99.90;;;;;;4955181;29;20046;-93
2023/03/28 03:42:09;;;;;;;12.23;5.60;;;2.60;99.90;;;;;;4953581;28;20038;-94
2023/03/28 03:44:35;;;;;;;11.00;5.45;;;2.20;99.90;;;;;;4954577;28;20035;-94
2023/03/28 03:47:01;;;;;;;7.43;5.22;;;2.50;99.90;;;;;;4954644;28;20035;-93
2023/03/28 03:49:27;;;;;;;8.57;5.28;;;2.30;99.90;;;;;;4954492;28;20031;-94
2023/03/28 03:51:52;;;;;;;12.18;6.22;;;2.60;99.90;;;;;;4954991;28;20066;-94
2023/03/28 03:54:18;;;;;;;8.00;5.30;;;2.50;99.90;;;;;;4953492;28;20042;-94
2023/03/28 03:56:44;;;;;;;8.52;5.35;;;2.40;99.90;;;;;;4954097;28;20030;-94
2023/03/28 03:59:10;;;;;;;9.77;5.30;;;2.90;99.90;;;;;;4954260;28;20435;-93
2023/03/28 04:01:38;;;;;;;10.65;5.03;;;2.90;99.90;;;;;;4954536;29;20023;-94
2023/03/28 04:04:06;;;;;;;8.10;5.18;;;2.50;99.90;;;;;;4954141;29;20062;-94
2023/03/28 04:06:32;;;;;;;7.85;4.88;;;2.50;99.90;;;;;;4954789;29;20081;-94
2023/03/28 04:08:58;;;;;;;12.10;5.88;;;2.90;99.90;;;;;;4954823;28;20043;-94
2023/03/28 04:11:23;;;;;;;11.07;6.00;;;2.50;99.90;;;;;;4954607;28;20023;-94
2023/03/28 04:13:49;;;;;;;12.70;6.70;;;2.40;99.90;;;;;;4953755;28;20063;-94
2023/03/28 04:16:14;;;;;;;11.70;6.53;;;2.70;99.90;;;;;;4953308;28;20126;-93
2023/03/28 04:18:49;;;;;;;10.45;6.20;;;2.40;99.90;;;;;;4953036;28;20027;-93
2023/03/28 04:21:16;;;;;;;11.82;6.82;;;2.40;99.90;;;;;;4953938;29;20121;-94
2023/03/28 04:23:42;;;;;;;9.73;6.47;;;2.10;99.90;;;;;;4954102;28;20110;-94
2023/03/28 04:26:09;;;;;;;10.30;5.80;;;2.60;99.90;;;;;;4953944;28;20126;-94
2023/03/28 04:28:34;;;;;;;12.85;6.03;;;2.40;99.90;;;;;;4953158;28;20466;-94
2023/03/28 04:31:00;;;;;;;11.10;6.47;;;2.20;99.90;;;;;;4936182;28;20067;-94
2023/03/28 04:33:28;;;;;;;10.65;6.35;;;2.00;99.90;;;;;;4935317;29;20389;-94
2023/03/28 04:35:59;;;;;;;10.88;6.60;;;2.10;99.90;;;;;;4950150;29;20119;-94
2023/03/28 04:38:27;;;;;;;10.13;6.68;;;2.20;99.90;;;;;;4953596;28;20039;-94
2023/03/28 04:40:56;;;;;;;10.93;6.35;;;2.00;99.90;;;;;;4954077;28;20436;-94
2023/03/28 04:43:26;;;;;;;16.05;8.63;;;2.20;99.90;;;;;;4952653;28;20113;-94
2023/03/28 04:45:53;;;;;;;22.52;12.93;;;2.20;99.90;;;;;;4954047;28;20027;-94
2023/03/28 04:48:18;;;;;;;21.05;11.57;;;2.30;99.90;;;;;;4953425;28;20050;-93
2023/03/28 04:50:44;;;;;;;17.00;9.00;;;2.30;99.90;;;;;;4951945;29;20032;-93
2023/03/28 04:53:11;;;;;;;13.85;8.23;;;2.10;99.90;;;;;;4952234;28;20031;-94
2023/03/28 04:55:38;;;;;;;13.93;8.00;;;2.00;99.90;;;;;;4953162;28;20031;-93
2023/03/28 04:58:04;;;;;;;14.40;7.57;;;2.10;99.90;;;;;;4952849;28;20084;-93
2023/03/28 05:00:31;;;;;;;14.05;7.47;;;2.10;99.90;;;;;;4953749;28;20061;-93
2023/03/28 05:03:00;;;;;;;11.70;7.30;;;2.10;99.90;;;;;;4953567;28;20038;-95
2023/03/28 05:05:25;;;;;;;10.55;6.47;;;2.20;99.90;;;;;;4953723;28;20030;-94
2023/03/28 05:07:51;;;;;;;8.15;6.13;;;1.90;99.90;;;;;;4952869;28;20122;-94
2023/03/28 05:10:17;;;;;;;12.57;6.75;;;2.20;99.90;;;;;;4953459;28;20034;-93
2023/03/28 05:12:42;;;;;;;12.77;7.40;;;2.30;99.90;;;;;;4952642;28;20047;-94
2023/03/28 05:15:08;;;;;;;11.57;7.55;;;2.20;99.90;;;;;;4951637;28;20067;-94
2023/03/28 05:17:34;;;;;;;14.18;7.65;;;2.00;99.90;;;;;;4953405;28;20202;-94
2023/03/28 05:20:00;;;;;;;13.18;8.27;;;2.00;99.90;;;;;;4953093;29;20034;-93
2023/03/28 05:22:25;;;;;;;11.02;7.22;;;1.90;99.90;;;;;;4952534;28;20108;-94
2023/03/28 05:24:51;;;;;;;11.40;6.65;;;2.00;99.90;;;;;;4953571;29;20049;-94
2023/03/28 05:27:17;;;;;;;10.55;6.38;;;2.00;99.90;;;;;;4952038;29;20043;-94
2023/03/28 05:29:43;;;;;;;11.60;6.32;;;2.30;99.90;;;;;;4952527;28;20058;-94
2023/03/28 05:32:11;;;;;;;11.07;6.65;;;2.20;99.90;;;;;;4953248;28;20084;-95
2023/03/28 05:34:37;;;;;;;14.07;6.70;;;2.50;99.90;;;;;;4953113;28;20412;-94
2023/03/28 05:37:02;;;;;;;12.30;6.28;;;2.10;99.90;;;;;;4952899;28;20118;-94
2023/03/28 05:39:28;;;;;;;10.70;6.25;;;2.00;99.90;;;;;;4952057;28;20088;-94
2023/03/28 05:41:54;;;;;;;17.30;7.05;;;2.00;99.90;;;;;;4952515;28;20089;-93
2023/03/28 05:44:19;;;;;;;16.17;6.50;;;2.20;99.90;;;;;;4952571;28;20118;-95
2023/03/28 05:46:45;;;;;;;11.93;6.22;;;2.10;99.90;;;;;;4952804;28;20157;-94
2023/03/28 05:49:11;;;;;;;11.07;6.28;;;2.00;99.90;;;;;;4951966;28;20023;-93
2023/03/28 05:51:36;;;;;;;13.00;6.50;;;1.80;99.90;;;;;;4952551;28;20128;-93
2023/03/28 05:54:02;;;;;;;11.07;7.00;;;1.90;99.90;;;;;;4951524;29;20035;-94
2023/03/28 05:56:31;;;;;;;10.82;6.70;;;2.00;99.90;;;;;;4952810;28;20035;-94
2023/03/28 05:58:57;;;;;;;14.50;6.93;;;2.40;99.90;;;;;;4953054;28;20023;-94
2023/03/28 06:01:27;;;;;;;10.90;6.93;;;2.00;99.90;;;;;;4951863;28;20034;-94
2023/03/28 06:03:54;;;;;;;10.52;6.53;;;2.10;99.90;;;;;;4952309;28;20034;-93
2023/03/28 06:06:20;;;;;;;10.85;6.78;;;2.10;99.90;;;;;;4951518;28;20493;-93
2023/03/28 06:08:46;;;;;;;11.73;7.30;;;2.20;99.90;;;;;;4952383;28;20027;-94
2023/03/28 06:11:12;;;;;;;16.02;7.57;;;2.70;99.90;;;;;;4953234;29;20057;-94
2023/03/28 06:13:38;;;;;;;17.63;8.30;;;2.40;99.90;;;;;;4951611;29;20034;-94
2023/03/28 06:16:04;;;;;;;12.25;8.35;;;2.30;99.90;;;;;;4952877;28;20035;-94
2023/03/28 06:18:30;;;;;;;13.85;8.10;;;2.50;99.90;;;;;;4952750;28;20027;-93
2023/03/28 06:20:56;;;;;;;12.23;7.32;;;2.90;99.90;;;;;;4952775;28;20485;-94
2023/03/28 06:23:22;;;;;;;15.23;8.52;;;2.70;99.90;;;;;;4951715;28;20031;-93
2023/03/28 06:25:47;;;;;;;11.63;7.53;;;2.50;99.90;;;;;;4949637;28;20050;-94
2023/03/28 06:28:13;;;;;;;14.25;7.28;;;3.00;99.90;;;;;;4947208;29;20032;-94
2023/03/28 06:30:39;;;;;;;16.13;7.60;;;2.90;99.90;;;;;;4952629;28;20486;-94
2023/03/28 06:33:05;;;;;;;12.80;7.28;;;3.20;99.90;;;;;;4952444;28;20557;-94
2023/03/28 06:35:32;;;;;;;18.35;8.00;;;3.20;99.90;;;;;;4952478;28;20036;-94
2023/03/28 06:37:58;;;;;;;15.30;7.85;;;3.40;99.90;;;;;;4952381;28;20038;-94
2023/03/28 06:40:25;;;;;;;14.70;7.55;;;3.00;99.90;;;;;;4952455;28;20031;-94
2023/03/28 06:42:51;;;;;;;17.85;6.93;;;2.90;99.90;;;;;;4952335;28;20031;-94
2023/03/28 06:45:17;;;;;;;14.73;8.82;;;2.90;99.90;;;;;;4952117;28;20030;-94
2023/03/28 06:47:44;;;;;;;16.42;7.78;;;3.20;99.90;;;;;;4952354;28;20023;-93
2023/03/28 06:50:10;;;;;;;14.48;7.57;;;3.40;99.90;;;;;;4951315;28;20104;-93
2023/03/28 06:52:36;;;;;;;13.27;7.55;;;3.70;99.90;;;;;;4955846;28;20397;-93
2023/03/28 06:55:02;;;;;;;10.43;6.95;;;3.30;99.90;;;;;;4955581;28;20039;-94
2023/03/28 06:57:27;;;;;;;11.43;7.40;;;3.40;99.90;;;;;;4955588;28;20034;-93
2023/03/28 06:59:53;;;;;;;10.48;7.38;;;3.30;99.90;;;;;;4956027;28;20035;-94
2023/03/28 07:02:19;;;;;;;18.23;7.55;;;3.70;99.90;;;;;;4955341;28;20385;-93
2023/03/28 07:04:45;;;;;;;14.55;6.90;;;3.40;99.90;;;;;;4955771;28;20113;-94
2023/03/28 07:07:10;;;;;;;15.57;7.80;;;3.50;99.90;;;;;;4954895;28;20381;-93
2023/03/28 07:09:36;;;;;;;20.20;8.85;;;3.60;99.90;;;;;;4955185;28;20031;-93
2023/03/28 07:12:03;;;;;;;17.15;8.82;;;3.90;99.90;;;;;;4955107;28;20027;-93
2023/03/28 07:14:28;;;;;;;12.85;8.00;;;3.70;99.90;;;;;;4955165;28;20042;-93
2023/03/28 07:16:54;;;;;;;15.68;8.15;;;3.80;99.90;;;;;;4955385;28;20035;-93
2023/03/28 07:19:21;;;;;;;16.42;9.07;;;3.90;99.90;;;;;;4954367;28;20042;-93
2023/03/28 07:21:46;;;;;;;14.95;7.80;;;4.10;99.90;;;;;;4939275;28;20027;-93
2023/03/28 07:24:12;;;;;;;10.27;7.63;;;4.10;99.90;;;;;;4953716;29;20432;-93
2023/03/28 07:26:38;;;;;;;16.70;7.95;;;4.50;99.90;;;;;;4952831;28;20044;-93
2023/03/28 07:29:03;;;;;;;15.05;8.25;;;4.30;99.90;;;;;;4955069;28;20489;-93
2023/03/28 07:31:29;;;;;;;15.55;7.70;;;4.30;99.90;;;;;;4954501;28;20134;-93
2023/03/28 07:33:59;;;;;;;13.75;8.13;;;4.50;99.90;;;;;;4954955;28;20031;-86
2023/03/28 07:36:27;;;;;;;13.45;7.65;;;4.80;99.90;;;;;;4955808;28;20027;-86
2023/03/28 07:38:52;;;;;;;15.30;8.07;;;5.00;99.90;;;;;;4953754;28;20031;-86
2023/03/28 07:41:18;;;;;;;14.82;8.30;;;5.20;99.90;;;;;;4953297;28;20404;-86
2023/03/28 07:43:44;;;;;;;15.32;7.97;;;5.20;99.90;;;;;;4952539;29;20035;-86
2023/03/28 07:46:15;;;;;;;15.18;8.32;;;5.30;99.90;;;;;;4953614;29;20028;-86
2023/03/28 07:48:41;;;;;;;12.23;7.55;;;5.30;99.90;;;;;;4953641;28;20156;-86
2023/03/28 07:51:08;;;;;;;21.15;7.75;;;5.40;99.90;;;;;;4953364;28;20025;-86
2023/03/28 07:53:36;;;;;;;12.68;7.75;;;5.50;99.90;;;;;;4953414;28;20035;-86
2023/03/28 07:56:02;;;;;;;10.85;7.82;;;5.60;99.90;;;;;;4953447;28;20043;-86
2023/03/28 07:58:28;;;;;;;17.65;7.95;;;5.60;99.90;;;;;;4953347;28;20081;-86
2023/03/28 08:00:55;;;;;;;9.82;7.93;;;5.70;99.90;;;;;;4953385;28;20023;-86
2023/03/28 08:03:22;;;;;;;15.85;7.90;;;6.10;99.90;;;;;;4952570;28;20042;-85
2023/03/28 08:05:51;;;;;;;9.90;7.57;;;6.10;99.90;;;;;;4952817;28;20030;-86
2023/03/28 08:08:18;;;;;;;16.58;8.23;;;6.10;99.90;;;;;;4953274;28;20031;-86
2023/03/28 08:10:45;;;;;;;9.85;7.40;;;6.30;99.90;;;;;;4953141;28;20027;-86
2023/03/28 08:13:11;;;;;;;14.48;7.65;;;6.40;99.90;;;;;;4953345;28;20115;-86
2023/03/28 08:15:37;;;;;;;10.10;7.35;;;6.50;99.90;;;;;;4953022;28;20110;-85
2023/03/28 08:18:02;;;;;;;11.35;7.60;;;6.90;99.90;;;;;;4952723;28;20035;-86
2023/03/28 08:20:28;;;;;;;13.18;7.15;;;6.90;99.90;;;;;;4953076;28;20485;-86
2023/03/28 08:22:54;;;;;;;15.90;7.20;;;7.00;99.90;;;;;;4952968;28;20461;-86
2023/03/28 08:25:19;;;;;;;12.82;7.47;;;6.70;99.90;;;;;;4952703;28;20046;-85
2023/03/28 08:27:45;;;;;;;11.20;6.68;;;6.80;99.90;;;;;;4933704;28;20043;-85
2023/03/28 08:30:11;;;;;;;9.13;6.30;;;7.00;99.90;;;;;;4934227;29;20402;-85
2023/03/28 08:32:36;;;;;;;12.52;7.38;;;7.00;99.90;;;;;;4933570;29;20082;-85
2023/03/28 08:35:02;;;;;;;13.95;7.30;;;7.20;99.90;;;;;;4933592;29;20048;-85
2023/03/28 08:37:28;;;;;;;12.90;7.05;;;7.30;99.90;;;;;;4933741;29;20524;-85
2023/03/28 08:39:54;;;;;;;15.40;6.80;;;7.10;99.90;;;;;;4933549;29;20023;-85
2023/03/28 08:42:53;;;;;;;11.60;7.57;;;7.00;99.90;;;;;;4933809;29;20028;-85
2023/03/28 08:45:18;;;;;;;15.00;6.95;;;7.20;99.90;;;;;;4941121;29;20030;-91
2023/03/28 08:47:44;;;;;;;14.38;7.07;;;7.30;99.90;;;;;;4953008;28;20389;-85
2023/03/28 08:50:16;;;;;;;10.52;6.85;;;7.50;99.90;;;;;;4952366;28;20196;-85
2023/03/28 08:52:43;;;;;;;10.32;6.75;;;7.60;99.90;;;;;;4952397;28;20027;-85
2023/03/28 08:55:34;;;;;;;9.85;5.88;;;7.60;99.90;;;;;;4952211;28;20027;-85
2023/03/28 08:58:00;;;;;;;12.73;6.38;;;7.70;99.90;;;;;;4952592;28;20129;-85
2023/03/28 09:00:35;;;;;;;14.15;6.72;;;7.70;99.90;;;;;;4952307;28;20505;-85
2023/03/28 09:03:01;;;;;;;10.80;7.50;;;7.80;99.90;;;;;;4952723;28;20103;-85
2023/03/28 09:06:00;;;;;;;11.63;5.53;;;7.70;99.90;;;;;;4952218;28;20045;-85
2023/03/28 09:09:17;;;;;;;13.93;6.75;;;7.90;99.90;;;;;;4952242;28;20035;-85
2023/03/28 09:11:53;;;;;;;11.95;6.30;;;7.80;99.90;;;;;;4950410;29;20047;-84
2023/03/28 09:14:21;;;;;;;10.52;6.30;;;7.80;99.90;;;;;;4949704;28;20055;-85
2023/03/28 09:17:01;;;;;;;13.60;6.50;;;7.90;99.90;;;;;;4950102;29;20038;-85
2023/03/28 09:20:10;;;;;;;11.90;6.18;;;8.20;99.90;;;;;;4949622;29;20078;-85
2023/03/28 09:23:02;;;;;;;9.85;6.10;;;8.20;99.90;;;;;;4949915;29;20154;-85
2023/03/28 09:25:56;;;;;;;8.45;5.65;;;8.60;99.90;;;;;;4949533;29;20051;-85
2023/03/28 09:28:30;;;;;;;6.82;5.18;;;8.80;99.90;;;;;;4950059;28;20050;-85
2023/03/28 09:30:57;;;;;;;9.48;5.22;;;9.10;99.90;;;;;;4949809;29;20115;-85
2023/03/28 09:33:46;;;;;;;11.05;5.70;;;9.30;99.90;;;;;;4949271;29;20036;-85
2023/03/28 09:36:19;;;;;;;8.15;4.88;;;9.60;99.90;;;;;;4950185;29;20121;-85
2023/03/28 09:38:52;;;;;;;8.65;5.40;;;10.00;99.90;;;;;;4949814;29;20054;-85
2023/03/28 09:41:40;;;;;;;9.35;5.00;;;11.70;99.90;;;;;;4949537;29;20111;-84
2023/03/28 09:44:12;;;;;;;9.18;4.82;;;13.90;99.90;;;;;;4949658;28;20027;-84
2023/03/28 09:46:44;;;;;;;6.80;4.55;;;14.90;99.90;;;;;;4943312;29;20093;-85
2023/03/28 09:49:18;;;;;;;5.43;2.38;;;16.10;99.90;;;;;;4945987;28;20620;-85
2023/03/28 09:51:45;;;;;;;3.80;2.10;;;17.10;99.90;;;;;;4950344;28;20038;-85
2023/03/28 09:54:11;;;;;;;4.35;2.40;;;18.50;99.90;;;;;;4939576;28;20031;-86
2023/03/28 09:56:42;;;;;;;3.45;1.85;;;18.70;99.90;;;;;;4943568;29;20040;-85
2023/03/28 09:59:28;;;;;;;2.55;2.00;;;18.60;99.90;;;;;;4942582;28;20024;-86
2023/03/28 10:01:55;;;;;;;3.88;1.92;;;18.70;99.90;;;;;;4950303;28;20031;-86
2023/03/28 10:04:27;;;;;;;2.83;1.83;;;18.10;99.90;;;;;;4951142;28;20216;-87
2023/03/28 10:06:55;;;;;;;4.47;2.35;;;19.20;99.90;;;;;;4951223;28;20148;-86
2023/03/28 10:09:28;;;;;;;4.20;2.30;;;19.10;99.90;;;;;;4956676;28;20026;-85
2023/03/28 10:11:59;;;;;;;3.42;1.80;;;18.40;99.90;;;;;;4951170;29;20027;-86
2023/03/28 10:14:38;;;;;;;3.90;1.98;;;19.10;99.90;;;;;;4935853;28;20505;-86
2023/03/28 10:17:14;;;;;;;4.10;2.50;;;19.90;99.90;;;;;;4944330;29;20110;-86
2023/03/28 10:19:42;;;;;;;3.80;1.90;;;20.20;99.90;;;;;;4949982;28;20081;-87
2023/03/28 10:22:14;;;;;;;4.07;2.33;;;20.00;99.90;;;;;;4950831;28;20032;-87
2023/03/28 10:24:41;;;;;;;2.53;2.20;;;20.00;99.90;;;;;;4950055;28;20393;-87
2023/03/28 10:27:22;;;;;;;2.92;2.25;;;19.20;99.90;;;;;;4950484;29;20043;-87
2023/03/28 10:29:51;;;;;;;4.63;2.10;;;19.50;99.90;;;;;;4951006;28;20429;-86
2023/03/28 10:32:28;;;;;;;5.03;2.00;;;19.50;99.90;;;;;;4950193;29;20027;-85
2023/03/28 10:35:29;;;;;;;3.03;2.22;;;19.00;99.90;;;;;;4948583;29;20043;-85
2023/03/28 10:37:55;;;;;;;6.85;2.88;;;20.00;99.90;;;;;;4935114;29;20074;-85
2023/03/28 10:40:28;;;;;;;2.22;1.70;;;20.50;99.90;;;;;;4932103;29;20557;-85
2023/03/28 10:42:56;;;;;;;1.90;1.52;;;19.20;99.90;;;;;;4931729;29;20447;-85
2023/03/28 10:45:30;;;;;;;4.32;2.03;;;19.60;99.90;;;;;;4938892;29;20027;-85
2023/03/28 10:47:59;;;;;;;2.88;1.50;;;20.60;99.90;;;;;;4949981;28;20031;-88
2023/03/28 10:50:46;;;;;;;2.53;2.10;;;20.30;99.90;;;;;;4951006;28;20047;-87
2023/03/28 10:53:37;;;;;;;2.20;1.60;;;20.30;99.90;;;;;;4932311;29;20028;-87
2023/03/28 10:56:37;;;;;;;2.55;1.70;;;20.50;99.90;;;;;;4943549;29;20039;-86
2023/03/28 10:59:11;;;;;;;2.03;1.80;;;21.90;99.90;;;;;;4950953;28;20027;-92
2023/03/28 11:02:14;;;;;;;2.97;1.60;;;24.10;99.90;;;;;;4949591;29;20122;-83
2023/03/28 11:04:58;;;;;;;1.88;1.60;;;24.50;99.90;;;;;;4950893;29;20112;-83
2023/03/28 11:07:52;;;;;;;2.03;1.60;;;24.00;99.90;;;;;;4949653;28;20219;-83
2023/03/28 11:10:29;;;;;;;2.08;1.63;;;23.70;99.90;;;;;;4941148;29;20025;-83
2023/03/28 11:12:55;;;;;;;2.63;1.80;;;23.30;99.90;;;;;;4950560;28;20148;-83
2023/03/28 11:15:38;;;;;;;2.22;1.80;;;24.00;99.90;;;;;;4950374;28;20137;-83
2023/03/28 11:18:10;;;;;;;2.33;1.52;;;23.00;99.90;;;;;;4950314;28;20020;-86
2023/03/28 11:20:44;;;;;;;2.50;1.88;;;22.10;99.90;;;;;;4950369;28;20086;-84
2023/03/28 11:23:41;;;;;;;3.30;1.90;;;22.20;99.90;;;;;;4950403;28;20019;-84
2023/03/28 11:26:30;;;;;;;2.75;1.92;;;24.40;99.90;;;;;;4944164;28;20048;-83
2023/03/28 11:29:22;;;;;;;3.22;1.90;;;25.30;99.90;;;;;;4944888;28;20035;-83
2023/03/28 11:32:18;;;;;;;3.50;1.98;;;25.50;99.90;;;;;;4947889;29;20038;-83
2023/03/28 11:35:12;;;;;;;2.35;1.60;;;22.00;99.90;;;;;;4950202;28;20127;-83
2023/03/28 11:38:16;;;;;;;6.82;2.00;;;22.30;99.90;;;;;;4945355;28;20551;-83
2023/03/28 11:41:03;;;;;;;3.28;1.67;;;23.20;99.90;;;;;;4933902;29;20034;-82
2023/03/28 11:43:46;;;;;;;2.17;1.80;;;21.70;99.90;;;;;;4934526;29;20032;-83
2023/03/28 11:46:21;;;;;;;1.88;1.60;;;20.80;99.90;;;;;;4947944;28;20114;-82
2023/03/28 11:49:10;;;;;;;2.55;1.95;;;20.40;99.90;;;;;;4953453;28;20034;-83
2023/03/28 11:51:55;;;;;;;2.53;1.75;;;20.20;99.90;;;;;;4953509;28;20401;-83
2023/03/28 11:54:52;;;;;;;2.45;1.75;;;19.70;99.90;;;;;;4953381;28;20031;-82
2023/03/28 11:57:27;;;;;;;2.78;1.70;;;19.70;99.90;;;;;;4950874;29;20077;-82
2023/03/28 12:00:19;;;;;;;2.15;1.80;;;21.40;99.90;;;;;;4951590;29;20055;-83
2023/03/28 12:03:15;;;;;;;3.70;2.10;;;21.80;99.90;;;;;;4951143;29;20042;-82
2023/03/28 12:05:56;;;;;;;2.50;1.88;;;21.30;99.90;;;;;;4912903;29;20037;-83
2023/03/28 12:08:31;;;;;;;2.85;1.80;;;21.40;99.90;;;;;;4912851;29;20131;-83
2023/03/28 12:11:03;;;;;;;2.08;1.83;;;21.20;99.90;;;;;;4913013;29;20029;-83
2023/03/28 12:13:37;;;;;;;2.97;1.80;;;21.80;99.90;;;;;;4912474;28;20097;-82
2023/03/28 12:16:10;;;;;;;3.53;2.15;;;22.20;99.90;;;;;;4913248;29;20032;-82
2023/03/28 12:18:41;;;;;;;3.33;1.80;;;23.10;99.90;;;;;;4912766;29;20067;-83
2023/03/28 12:21:27;;;;;;;3.78;1.88;;;23.20;99.90;;;;;;4912740;28;20040;-83
2023/03/28 12:24:13;;;;;;;2.85;2.15;;;23.80;99.90;;;;;;4912716;28;20434;-83
2023/03/28 12:26:49;;;;;;;3.15;1.98;;;22.90;99.90;;;;;;4912364;28;20090;-83
2023/03/28 12:29:31;;;;;;;2.50;2.20;;;22.20;99.90;;;;;;4912575;29;20070;-83
2023/03/28 12:32:10;;;;;;;3.72;2.30;;;21.60;99.90;;;;;;4912346;29;20040;-83
2023/03/28 12:34:47;;;;;;;3.20;2.10;;;20.90;99.90;;;;;;4898393;29;20107;-83
2023/03/28 12:37:25;;;;;;;2.72;2.20;;;22.80;99.90;;;;;;4893677;29;20033;-83
2023/03/28 12:40:22;;;;;;;3.83;2.50;;;24.20;99.90;;;;;;4893742;29;20127;-83
2023/03/28 12:42:52;;;;;;;3.10;2.45;;;24.30;99.90;;;;;;4913941;29;20032;-83
2023/03/28 12:45:28;;;;;;;4.53;2.20;;;24.00;99.90;;;;;;4940693;28;20485;-82
2023/03/28 12:48:01;;;;;;;3.00;2.10;;;24.90;99.90;;;;;;4952487;28;20039;-83
2023/03/28 12:50:50;;;;;;;4.72;2.40;;;23.30;99.90;;;;;;4952451;28;20085;-83
2023/03/28 12:53:16;;;;;;;3.58;1.95;;;23.20;99.90;;;;;;4952551;28;20027;-82
2023/03/28 12:55:47;;;;;;;2.63;2.03;;;23.20;99.90;;;;;;4952106;28;20050;-83
2023/03/28 12:58:25;;;;;;;2.88;2.30;;;23.50;99.90;;;;;;4952975;28;20385;-83
2023/03/28 13:01:07;;;;;;;3.13;1.95;;;23.30;99.90;;;;;;4952511;28;20027;-83
2023/03/28 13:03:33;;;;;;;4.18;1.98;;;23.30;99.90;;;;;;4952378;28;20102;-83
2023/03/28 13:06:28;;;;;;;3.85;2.10;;;22.20;99.90;;;;;;4952510;28;20511;-82
2023/03/28 13:09:24;;;;;;;2.92;2.00;;;21.20;99.90;;;;;;4952342;28;20439;-82
2023/03/28 13:11:53;;;;;;;3.25;2.05;;;20.10;99.90;;;;;;4951891;28;20061;-83
2023/03/28 13:14:39;;;;;;;3.70;2.10;;;20.60;99.90;;;;;;4952671;28;20057;-82
2023/03/28 13:17:18;;;;;;;2.50;2.20;;;20.00;99.90;;;;;;4952137;28;20126;-83
2023/03/28 13:19:50;;;;;;;2.95;1.73;;;20.00;99.90;;;;;;4952071;28;20043;-83